Borne, Netherlands
Current Conditions -  °F | °C
As of 2:55 AM on Tuesday 21 Oct 2014 (Local Time) from EHDL Reporting Station
Broken Clouds Broken Clouds  
Wind Chill: 55°   Ceiling: 1400
Heat Index: 55°   Visibility: 6mi
Dew Point: 52°   Wind: 12mph
Humidity: 88%   Direction: 210°SSW
Pressure: 29.83"   Gusts: NA
Location:  52.3°N, 6.75°E
Report Text: EHDL 210055Z AUTO 21010KT 9999 SCT011 BKN014 BKN021 13/11 Q1010 GRN
Loading
Personal Weather Stations






























Interactive Weather Map
Tropical Storm Tracking
New forecast layout! Learn more

10-Day Weather Forecast

Advertisements
Track Severe Weather on mobile